PLF255 EPPW-EPMB
Flight info
| Callsign | PLF255 |
|---|---|
| Flight time | 0h 41m |
| Altitude | 1500 |
| Route | EPPWN EPPWB GRU EPMBF |
| Aircraft | C130/M-G/LB1 |
Departure
| Time | 2026-04-26 12:55 |
|---|---|
| Airport | Powidz Military Air Base (EPPW) |
Arrival
| Time | 2026-04-26 13:37 |
|---|---|
| Airport | Malbork Królewo Air Base (EPMB) |
| Time | Latitude | Longitude | Altitude | Speed | Heading |
|---|---|---|---|---|---|
| 2026-04-26 12:50 | 52.37910 | 17.87376 | 368 ft | 0 kts | 192° |
| 2026-04-26 12:51 | 52.37892 | 17.87371 | 371 ft | 9 kts | 185° |
| 2026-04-26 12:52 | 52.37848 | 17.87411 | 368 ft | 7 kts | 115° |
| 2026-04-26 12:52 | 52.37835 | 17.87474 | 371 ft | 6 kts | 106° |
| 2026-04-26 12:52 | 52.37821 | 17.87547 | 371 ft | 7 kts | 107° |
| 2026-04-26 12:52 | 52.37806 | 17.87625 | 368 ft | 8 kts | 108° |
| 2026-04-26 12:53 | 52.37779 | 17.87762 | 371 ft | 11 kts | 112° |
| 2026-04-26 12:53 | 52.37723 | 17.87801 | 368 ft | 9 kts | 192° |
| 2026-04-26 12:53 | 52.37666 | 17.87774 | 368 ft | 9 kts | 197° |
| 2026-04-26 12:53 | 52.37609 | 17.87744 | 368 ft | 9 kts | 198° |
| 2026-04-26 12:54 | 52.37553 | 17.87715 | 367 ft | 10 kts | 197° |
| 2026-04-26 12:54 | 52.37459 | 17.87641 | 367 ft | 15 kts | 248° |
| 2026-04-26 12:54 | 52.37475 | 17.87459 | 365 ft | 37 kts | 288° |
| 2026-04-26 12:54 | 52.37621 | 17.86694 | 368 ft | 101 kts | 289° |
| 2026-04-26 12:55 | 52.37865 | 17.85364 | 456 ft | 139 kts | 286° |
| 2026-04-26 12:55 | 52.38153 | 17.83742 | 672 ft | 155 kts | 292° |
| 2026-04-26 12:55 | 52.38525 | 17.81986 | 854 ft | 168 kts | 292° |
| 2026-04-26 12:55 | 52.39047 | 17.80327 | 1184 ft | 157 kts | 320° |
| 2026-04-26 12:56 | 52.40079 | 17.80137 | 1426 ft | 172 kts | 26° |
| 2026-04-26 12:56 | 52.40720 | 17.81944 | 1407 ft | 206 kts | 70° |
| 2026-04-26 12:56 | 52.41047 | 17.84266 | 1528 ft | 207 kts | 69° |
| 2026-04-26 12:56 | 52.41368 | 17.86476 | 1473 ft | 186 kts | 64° |
| 2026-04-26 12:57 | 52.42217 | 17.87842 | 1453 ft | 168 kts | 13° |
| 2026-04-26 12:57 | 52.43347 | 17.88222 | 1567 ft | 173 kts | 7° |
| 2026-04-26 12:57 | 52.44612 | 17.88661 | 1490 ft | 197 kts | 9° |
| 2026-04-26 12:58 | 52.46595 | 17.91709 | 1451 ft | 240 kts | 80° |
| 2026-04-26 12:58 | 52.46313 | 17.94438 | 1469 ft | 246 kts | 104° |
| 2026-04-26 12:58 | 52.45773 | 17.97113 | 1395 ft | 242 kts | 106° |
| 2026-04-26 12:58 | 52.45165 | 17.99631 | 1418 ft | 233 kts | 109° |
| 2026-04-26 12:59 | 52.44523 | 18.02039 | 1511 ft | 229 kts | 110° |
| 2026-04-26 12:59 | 52.43905 | 18.04443 | 1506 ft | 229 kts | 108° |
| 2026-04-26 12:59 | 52.43324 | 18.06876 | 1505 ft | 231 kts | 107° |
| 2026-04-26 12:59 | 52.42964 | 18.09405 | 1503 ft | 225 kts | 81° |
| 2026-04-26 13:00 | 52.43284 | 18.11863 | 1503 ft | 219 kts | 68° |
| 2026-04-26 13:00 | 52.43745 | 18.14219 | 1503 ft | 214 kts | 59° |
| 2026-04-26 13:00 | 52.44715 | 18.15916 | 1492 ft | 202 kts | 21° |
| 2026-04-26 13:00 | 52.46034 | 18.16608 | 1508 ft | 198 kts | 11° |
| 2026-04-26 13:01 | 52.47394 | 18.17163 | 1519 ft | 216 kts | 9° |
| 2026-04-26 13:01 | 52.48918 | 18.17728 | 1545 ft | 222 kts | 8° |
| 2026-04-26 13:01 | 52.50411 | 18.18215 | 1545 ft | 220 kts | 8° |
| 2026-04-26 13:01 | 52.51901 | 18.18674 | 1543 ft | 216 kts | 7° |
| 2026-04-26 13:02 | 52.53296 | 18.19541 | 1523 ft | 221 kts | 32° |
| 2026-04-26 13:02 | 52.54391 | 18.21352 | 1531 ft | 224 kts | 42° |
| 2026-04-26 13:02 | 52.55431 | 18.23222 | 1524 ft | 220 kts | 43° |
| 2026-04-26 13:02 | 52.56457 | 18.25090 | 1524 ft | 220 kts | 43° |
| 2026-04-26 13:03 | 52.57463 | 18.27003 | 1528 ft | 223 kts | 43° |
| 2026-04-26 13:03 | 52.58466 | 18.28952 | 1551 ft | 223 kts | 43° |
| 2026-04-26 13:03 | 52.59465 | 18.30891 | 1553 ft | 222 kts | 44° |
| 2026-04-26 13:03 | 52.60466 | 18.32833 | 1553 ft | 223 kts | 44° |
| 2026-04-26 13:04 | 52.61458 | 18.34802 | 1551 ft | 224 kts | 44° |
| 2026-04-26 13:04 | 52.62450 | 18.36780 | 1551 ft | 223 kts | 44° |
| 2026-04-26 13:04 | 52.63453 | 18.38731 | 1553 ft | 224 kts | 44° |
| 2026-04-26 13:04 | 52.64457 | 18.40691 | 1554 ft | 224 kts | 44° |
| 2026-04-26 13:05 | 52.65447 | 18.42656 | 1556 ft | 222 kts | 44° |
| 2026-04-26 13:05 | 52.66427 | 18.44615 | 1553 ft | 221 kts | 44° |
| 2026-04-26 13:05 | 52.67408 | 18.46554 | 1540 ft | 221 kts | 45° |
| 2026-04-26 13:05 | 52.68402 | 18.48490 | 1553 ft | 222 kts | 44° |
| 2026-04-26 13:06 | 52.69400 | 18.50430 | 1550 ft | 222 kts | 44° |
| 2026-04-26 13:06 | 52.70398 | 18.52378 | 1548 ft | 223 kts | 44° |
| 2026-04-26 13:06 | 52.71394 | 18.54336 | 1550 ft | 223 kts | 44° |
| 2026-04-26 13:06 | 52.72392 | 18.56306 | 1552 ft | 225 kts | 45° |
| 2026-04-26 13:07 | 52.73394 | 18.58285 | 1541 ft | 224 kts | 44° |
| 2026-04-26 13:07 | 52.74400 | 18.60252 | 1546 ft | 224 kts | 44° |
| 2026-04-26 13:07 | 52.75397 | 18.62227 | 1546 ft | 225 kts | 44° |
| 2026-04-26 13:07 | 52.76402 | 18.64211 | 1545 ft | 225 kts | 44° |
| 2026-04-26 13:08 | 52.77400 | 18.66191 | 1552 ft | 223 kts | 45° |
| 2026-04-26 13:08 | 52.78396 | 18.68166 | 1552 ft | 224 kts | 43° |
| 2026-04-26 13:08 | 52.79390 | 18.70152 | 1555 ft | 224 kts | 44° |
| 2026-04-26 13:08 | 52.80368 | 18.72091 | 1554 ft | 222 kts | 45° |
| 2026-04-26 13:09 | 52.81350 | 18.74053 | 1547 ft | 222 kts | 43° |
| 2026-04-26 13:09 | 52.82331 | 18.76024 | 1534 ft | 221 kts | 44° |
| 2026-04-26 13:09 | 52.83292 | 18.78007 | 1536 ft | 221 kts | 44° |
| 2026-04-26 13:09 | 52.84254 | 18.79982 | 1530 ft | 221 kts | 45° |
| 2026-04-26 13:10 | 52.85216 | 18.81966 | 1536 ft | 221 kts | 46° |
| 2026-04-26 13:10 | 52.86190 | 18.83944 | 1540 ft | 223 kts | 44° |
| 2026-04-26 13:10 | 52.87169 | 18.85926 | 1534 ft | 222 kts | 44° |
| 2026-04-26 13:10 | 52.88145 | 18.87910 | 1538 ft | 222 kts | 43° |
| 2026-04-26 13:11 | 52.89126 | 18.89878 | 1536 ft | 221 kts | 44° |
| 2026-04-26 13:11 | 52.90148 | 18.91736 | 1521 ft | 213 kts | 29° |
| 2026-04-26 13:11 | 52.91484 | 18.92573 | 1535 ft | 204 kts | 7° |
| 2026-04-26 13:11 | 52.92873 | 18.92902 | 1536 ft | 201 kts | 2° |
| 2026-04-26 13:12 | 52.94266 | 18.92997 | 1540 ft | 201 kts | 358° |
| 2026-04-26 13:12 | 52.95663 | 18.92973 | 1534 ft | 201 kts | 355° |
| 2026-04-26 13:12 | 52.97059 | 18.92913 | 1534 ft | 201 kts | 354° |
| 2026-04-26 13:12 | 52.98460 | 18.92810 | 1550 ft | 202 kts | 354° |
| 2026-04-26 13:13 | 52.99861 | 18.92708 | 1542 ft | 202 kts | 355° |
| 2026-04-26 13:13 | 53.01263 | 18.92629 | 1552 ft | 202 kts | 355° |
| 2026-04-26 13:13 | 53.02668 | 18.92560 | 1548 ft | 201 kts | 355° |
| 2026-04-26 13:13 | 53.04061 | 18.92444 | 1535 ft | 200 kts | 349° |
| 2026-04-26 13:14 | 53.05427 | 18.92030 | 1541 ft | 199 kts | 346° |
| 2026-04-26 13:14 | 53.06788 | 18.91537 | 1538 ft | 200 kts | 345° |
| 2026-04-26 13:14 | 53.08139 | 18.91000 | 1533 ft | 200 kts | 345° |
| 2026-04-26 13:14 | 53.09484 | 18.90452 | 1547 ft | 199 kts | 344° |
| 2026-04-26 13:15 | 53.10836 | 18.89915 | 1531 ft | 201 kts | 345° |
| 2026-04-26 13:15 | 53.12195 | 18.89374 | 1550 ft | 201 kts | 344° |
| 2026-04-26 13:15 | 53.13561 | 18.88830 | 1540 ft | 202 kts | 345° |
| 2026-04-26 13:15 | 53.14473 | 18.88470 | 1556 ft | 203 kts | 344° |
| 2026-04-26 13:16 | 53.16310 | 18.87737 | 1557 ft | 204 kts | 344° |
| 2026-04-26 13:16 | 53.17702 | 18.87182 | 1550 ft | 205 kts | 344° |
| 2026-04-26 13:16 | 53.19088 | 18.86633 | 1551 ft | 205 kts | 345° |
| 2026-04-26 13:16 | 53.20470 | 18.86084 | 1556 ft | 203 kts | 345° |
| 2026-04-26 13:17 | 53.23198 | 18.84958 | 1551 ft | 202 kts | 344° |
| 2026-04-26 13:17 | 53.24561 | 18.84405 | 1545 ft | 202 kts | 345° |
| 2026-04-26 13:18 | 53.27290 | 18.83244 | 1556 ft | 203 kts | 343° |
| 2026-04-26 13:18 | 53.28642 | 18.82674 | 1548 ft | 204 kts | 344° |
| 2026-04-26 13:18 | 53.31380 | 18.81561 | 1557 ft | 201 kts | 344° |
| 2026-04-26 13:19 | 53.32747 | 18.81005 | 1562 ft | 203 kts | 344° |
| 2026-04-26 13:19 | 53.34123 | 18.80440 | 1549 ft | 203 kts | 345° |
| 2026-04-26 13:19 | 53.35496 | 18.79857 | 1552 ft | 204 kts | 345° |
| 2026-04-26 13:19 | 53.36867 | 18.79274 | 1553 ft | 203 kts | 345° |
| 2026-04-26 13:20 | 53.38239 | 18.78685 | 1550 ft | 204 kts | 345° |
| 2026-04-26 13:20 | 53.39575 | 18.77907 | 1535 ft | 204 kts | 327° |
| 2026-04-26 13:20 | 53.40694 | 18.76448 | 1547 ft | 204 kts | 322° |
| 2026-04-26 13:20 | 53.41798 | 18.74960 | 1536 ft | 204 kts | 321° |
| 2026-04-26 13:21 | 53.42898 | 18.73450 | 1551 ft | 205 kts | 322° |
| 2026-04-26 13:21 | 53.43616 | 18.72439 | 1553 ft | 205 kts | 321° |
| 2026-04-26 13:21 | 53.45073 | 18.70374 | 1551 ft | 206 kts | 321° |
| 2026-04-26 13:21 | 53.46169 | 18.68827 | 1552 ft | 205 kts | 321° |
| 2026-04-26 13:22 | 53.47252 | 18.67270 | 1555 ft | 205 kts | 321° |
| 2026-04-26 13:22 | 53.48406 | 18.65878 | 1554 ft | 205 kts | 330° |
| 2026-04-26 13:22 | 53.49688 | 18.64851 | 1556 ft | 204 kts | 339° |
| 2026-04-26 13:22 | 53.51057 | 18.64215 | 1557 ft | 205 kts | 347° |
| 2026-04-26 13:23 | 53.52475 | 18.63969 | 1556 ft | 205 kts | 357° |
| 2026-04-26 13:23 | 53.53893 | 18.64261 | 1557 ft | 206 kts | 9° |
| 2026-04-26 13:23 | 53.55294 | 18.64780 | 1562 ft | 207 kts | 10° |
| 2026-04-26 13:23 | 53.56687 | 18.65372 | 1564 ft | 207 kts | 11° |
| 2026-04-26 13:24 | 53.58071 | 18.66084 | 1559 ft | 209 kts | 21° |
| 2026-04-26 13:24 | 53.59372 | 18.67202 | 1565 ft | 211 kts | 24° |
| 2026-04-26 13:24 | 53.60622 | 18.68481 | 1566 ft | 210 kts | 28° |
| 2026-04-26 13:24 | 53.61857 | 18.69832 | 1564 ft | 212 kts | 28° |
| 2026-04-26 13:25 | 53.63081 | 18.71213 | 1564 ft | 212 kts | 30° |
| 2026-04-26 13:25 | 53.64299 | 18.72588 | 1560 ft | 210 kts | 30° |
| 2026-04-26 13:25 | 53.65487 | 18.73948 | 1560 ft | 208 kts | 30° |
| 2026-04-26 13:25 | 53.66666 | 18.75441 | 1554 ft | 210 kts | 34° |
| 2026-04-26 13:26 | 53.67772 | 18.77036 | 1546 ft | 209 kts | 36° |
| 2026-04-26 13:26 | 53.68847 | 18.78660 | 1551 ft | 212 kts | 37° |
| 2026-04-26 13:26 | 53.69949 | 18.80335 | 1556 ft | 214 kts | 37° |
| 2026-04-26 13:26 | 53.71004 | 18.82101 | 1558 ft | 213 kts | 39° |
| 2026-04-26 13:27 | 53.72095 | 18.83811 | 1561 ft | 215 kts | 36° |
| 2026-04-26 13:27 | 53.73220 | 18.85504 | 1564 ft | 217 kts | 37° |
| 2026-04-26 13:27 | 53.74357 | 18.87182 | 1565 ft | 217 kts | 36° |
| 2026-04-26 13:27 | 53.75582 | 18.88602 | 1562 ft | 211 kts | 21° |
| 2026-04-26 13:28 | 53.76949 | 18.89430 | 1567 ft | 207 kts | 11° |
| 2026-04-26 13:28 | 53.78352 | 18.89958 | 1567 ft | 206 kts | 6° |
| 2026-04-26 13:28 | 53.79775 | 18.90116 | 1567 ft | 204 kts | 359° |
| 2026-04-26 13:28 | 53.81197 | 18.90133 | 1567 ft | 204 kts | 358° |
| 2026-04-26 13:29 | 53.82619 | 18.90106 | 1567 ft | 204 kts | 357° |
| 2026-04-26 13:29 | 53.83574 | 18.90083 | 1573 ft | 203 kts | 356° |
| 2026-04-26 13:29 | 53.85447 | 18.90009 | 1566 ft | 204 kts | 356° |
| 2026-04-26 13:29 | 53.86855 | 18.89869 | 1584 ft | 201 kts | 353° |
| 2026-04-26 13:30 | 53.88239 | 18.89638 | 1590 ft | 199 kts | 352° |
| 2026-04-26 13:30 | 53.89599 | 18.89327 | 1588 ft | 197 kts | 349° |
| 2026-04-26 13:30 | 53.90945 | 18.88920 | 1595 ft | 195 kts | 348° |
| 2026-04-26 13:30 | 53.92284 | 18.88930 | 1600 ft | 199 kts | 14° |
| 2026-04-26 13:31 | 53.93514 | 18.90067 | 1599 ft | 206 kts | 34° |
| 2026-04-26 13:31 | 53.94473 | 18.91900 | 1602 ft | 207 kts | 43° |
| 2026-04-26 13:31 | 53.95353 | 18.93823 | 1605 ft | 211 kts | 56° |
| 2026-04-26 13:31 | 53.95679 | 18.96309 | 1597 ft | 219 kts | 75° |
| 2026-04-26 13:32 | 53.95915 | 18.98870 | 1608 ft | 220 kts | 76° |
| 2026-04-26 13:32 | 53.96140 | 19.01436 | 1610 ft | 220 kts | 75° |
| 2026-04-26 13:32 | 53.96345 | 19.04009 | 1606 ft | 220 kts | 77° |
| 2026-04-26 13:32 | 53.96545 | 19.06571 | 1607 ft | 219 kts | 74° |
| 2026-04-26 13:33 | 53.96827 | 19.09104 | 1611 ft | 219 kts | 74° |
| 2026-04-26 13:33 | 53.97145 | 19.11625 | 1610 ft | 218 kts | 71° |
| 2026-04-26 13:33 | 53.97464 | 19.14117 | 1612 ft | 215 kts | 72° |
| 2026-04-26 13:33 | 53.97789 | 19.16601 | 1609 ft | 216 kts | 71° |
| 2026-04-26 13:34 | 53.98138 | 19.19051 | 1614 ft | 209 kts | 69° |
| 2026-04-26 13:34 | 53.98528 | 19.21323 | 1633 ft | 190 kts | 64° |
| 2026-04-26 13:34 | 53.99168 | 19.23133 | 1546 ft | 176 kts | 29° |
| 2026-04-26 13:34 | 53.99522 | 19.23469 | 1563 ft | 168 kts | 15° |
| 2026-04-26 13:35 | 54.01114 | 19.23471 | 1429 ft | 135 kts | 345° |
| 2026-04-26 13:35 | 54.02001 | 19.23075 | 1365 ft | 125 kts | 342° |
| 2026-04-26 13:35 | 54.02755 | 19.22405 | 1274 ft | 123 kts | 323° |
| 2026-04-26 13:35 | 54.03257 | 19.21220 | 1078 ft | 127 kts | 297° |
| 2026-04-26 13:36 | 54.03367 | 19.19694 | 825 ft | 135 kts | 270° |
| 2026-04-26 13:36 | 54.03166 | 19.18112 | 595 ft | 137 kts | 266° |
| 2026-04-26 13:36 | 54.02987 | 19.16560 | 303 ft | 129 kts | 269° |
| 2026-04-26 13:36 | 54.02828 | 19.15122 | 40 ft | 118 kts | 269° |
| 2026-04-26 13:37 | 54.02705 | 19.13876 | 24 ft | 97 kts | 259° |
| 2026-04-26 13:37 | 54.02603 | 19.13049 | 27 ft | 50 kts | 259° |
| 2026-04-26 13:37 | 54.02569 | 19.12763 | 25 ft | 24 kts | 258° |
| 2026-04-26 13:37 | 54.02590 | 19.12483 | 24 ft | 15 kts | 338° |
| 2026-04-26 13:38 | 54.02645 | 19.12461 | 25 ft | 10 kts | 351° |
| 2026-04-26 13:38 | 54.02700 | 19.12444 | 25 ft | 9 kts | 349° |
| 2026-04-26 13:38 | 54.02784 | 19.12419 | 27 ft | 11 kts | 352° |
| 2026-04-26 13:38 | 54.02849 | 19.12442 | 28 ft | 14 kts | 52° |
| 2026-04-26 13:39 | 54.02885 | 19.12482 | 26 ft | 0 kts | 350° |